Archival Weather

Chicago O'Hare International

Chicago, Illinois (KORD)

Report from: Wednesday, February 16, 2022 8:07 PM CST
Current time: Saturday, February 4, 2023 9:50 PM CST

Current weather
Weather history
Weather forecast

Present weatherHeavy rain
Temperature11.7°C (53.1°F)
Dew point8.9°C (48.0°F)
Winds 8 kts (4.1 m/s, 9.2 mph) West-Northwest (290°)
Wind gusts 19 kts (9.8 m/s, 21.9 mph)
Visibility5 mi. (8 km)
Clouds Ceiling: Broken clouds 2,000 ft. (610 m)
Broken clouds 3,800 ft. (1,158 m)
Overcast 6,500 ft. (1,981 m)
Altimeter29.77 in.Hg (1008 mB)
Precipitiation0.04 in. (1 mm)
Relative humidity83 %
Density altitude-57 ft. (-17 m)
Remarks Automated weather observing station with precipitation discriminator
Flight conditions Marginal Visual Meteorological Conditions
Raw dataKORD 170207Z 29008G19KT 5SM +RA BKN020 BKN038 OVC065 12/09 A2977 RMK AO2 WSHFT 0149 P0004 T01170089
An unhandled exception has occurred. See browser dev tools for details. Reload 🗙